sensor_id;sensor_type;location;lat;lon;timestamp;pressure;altitude;pressure_sealevel;temperature;humidity
3524;BME280;1776;53.330;11.498;2023-04-27T00:01:48;24453.22;;;-147.39;55.30
3524;BME280;1776;53.330;11.498;2023-04-27T00:04:13;24422.72;;;-147.39;55.50
3524;BME280;1776;53.330;11.498;2023-04-27T00:06:38;24426.78;;;-147.39;56.19
3524;BME280;1776;53.330;11.498;2023-04-27T00:09:04;24426.78;;;-147.39;56.47
3524;BME280;1776;53.330;11.498;2023-04-27T00:11:29;24412.53;;;-147.39;56.56
3524;BME280;1776;53.330;11.498;2023-04-27T00:13:55;24410.50;;;-147.39;56.89
3524;BME280;1776;53.330;11.498;2023-04-27T00:16:20;24441.00;;;-147.39;56.71
3524;BME280;1776;53.330;11.498;2023-04-27T00:18:45;24392.22;;;-147.39;57.36
3524;BME280;1776;53.330;11.498;2023-04-27T00:21:11;24386.09;;;-147.39;57.80
3524;BME280;1776;53.330;11.498;2023-04-27T00:23:36;24424.75;;;-147.39;58.44
3524;BME280;1776;53.330;11.498;2023-04-27T00:26:01;24404.41;;;-147.39;58.30
3524;BME280;1776;53.330;11.498;2023-04-27T00:28:27;24402.38;;;-147.39;58.08
3524;BME280;1776;53.330;11.498;2023-04-27T00:30:52;24398.31;;;-147.39;58.21
3524;BME280;1776;53.330;11.498;2023-04-27T00:33:19;24351.53;;;-147.39;58.61
3524;BME280;1776;53.330;11.498;2023-04-27T00:35:44;24371.88;;;-147.39;58.38
3524;BME280;1776;53.330;11.498;2023-04-27T00:38:10;24400.34;;;-147.39;58.34
3524;BME280;1776;53.330;11.498;2023-04-27T00:40:36;24392.22;;;-147.39;58.27
3524;BME280;1776;53.330;11.498;2023-04-27T00:43:01;24402.38;;;-147.39;58.22
3524;BME280;1776;53.330;11.498;2023-04-27T00:45:26;24380.00;;;-147.39;58.23
3524;BME280;1776;53.330;11.498;2023-04-27T00:47:52;24369.84;;;-147.39;58.50
3524;BME280;1776;53.330;11.498;2023-04-27T00:50:26;24377.97;;;-147.39;58.02
3524;BME280;1776;53.330;11.498;2023-04-27T00:52:52;24353.56;;;-147.39;59.25
3524;BME280;1776;53.330;11.498;2023-04-27T00:55:18;24341.38;;;-147.39;60.21
3524;BME280;1776;53.330;11.498;2023-04-27T00:57:43;24396.28;;;-147.39;60.19
3524;BME280;1776;53.330;11.498;2023-04-27T01:00:09;24044.50;;;-147.39;59.87
3524;BME280;1776;53.330;11.498;2023-04-27T01:02:35;24335.28;;;-147.39;59.68
3524;BME280;1776;53.330;11.498;2023-04-27T01:05:01;24361.72;;;-147.39;60.04
3524;BME280;1776;53.330;11.498;2023-04-27T01:07:28;24337.31;;;-147.39;59.75
3524;BME280;1776;53.330;11.498;2023-04-27T01:09:53;24347.47;;;-147.39;59.73
3524;BME280;1776;53.330;11.498;2023-04-27T01:12:18;24349.50;;;-147.39;60.01
3524;BME280;1776;53.330;11.498;2023-04-27T01:14:43;24272.25;;;-147.39;59.71
3524;BME280;1776;53.330;11.498;2023-04-27T01:17:09;24333.25;;;-147.39;60.25
3524;BME280;1776;53.330;11.498;2023-04-27T01:19:34;24394.25;;;-147.39;60.18
3524;BME280;1776;53.330;11.498;2023-04-27T01:22:00;24239.72;;;-147.39;59.82
3524;BME280;1776;53.330;11.498;2023-04-27T01:24:25;24333.25;;;-147.39;59.29
3524;BME280;1776;53.330;11.498;2023-04-27T01:26:50;24394.25;;;-147.39;59.12
3524;BME280;1776;53.330;11.498;2023-04-27T01:29:18;24349.50;;;-147.39;59.22
3524;BME280;1776;53.330;11.498;2023-04-27T01:31:43;24375.94;;;-147.39;59.14
3524;BME280;1776;53.330;11.498;2023-04-27T01:34:08;24375.94;;;-147.39;58.89
3524;BME280;1776;53.330;11.498;2023-04-27T01:36:34;24319.00;;;-147.39;59.44
3524;BME280;1776;53.330;11.498;2023-04-27T01:39:00;24331.22;;;-147.39;59.55
3524;BME280;1776;53.330;11.498;2023-04-27T01:41:25;24329.16;;;-147.39;59.72
3524;BME280;1776;53.330;11.498;2023-04-27T01:43:51;24325.09;;;-147.39;60.38
3524;BME280;1776;53.330;11.498;2023-04-27T01:46:16;24272.25;;;-147.39;61.38
3524;BME280;1776;53.330;11.498;2023-04-27T01:48:41;24282.41;;;-147.39;62.48
3524;BME280;1776;53.330;11.498;2023-04-27T01:51:07;24266.13;;;-147.39;61.94
3524;BME280;1776;53.330;11.498;2023-04-27T01:53:32;24280.38;;;-147.39;61.70
3524;BME280;1776;53.330;11.498;2023-04-27T01:55:58;24284.44;;;-147.39;63.01
3524;BME280;1776;53.330;11.498;2023-04-27T01:58:26;24213.28;;;-147.39;63.34
3524;BME280;1776;53.330;11.498;2023-04-27T02:00:51;24233.59;;;-147.39;63.46
3524;BME280;1776;53.330;11.498;2023-04-27T02:03:16;24207.16;;;-147.39;63.46
3524;BME280;1776;53.330;11.498;2023-04-27T02:05:42;24235.63;;;-147.39;63.21
3524;BME280;1776;53.330;11.498;2023-04-27T02:08:07;24231.56;;;-147.39;62.95
3524;BME280;1776;53.330;11.498;2023-04-27T02:10:34;24205.13;;;-147.39;62.71
3524;BME280;1776;53.330;11.498;2023-04-27T02:13:00;24260.03;;;-147.39;62.77
3524;BME280;1776;53.330;11.498;2023-04-27T02:15:26;24255.97;;;-147.39;62.34
3524;BME280;1776;53.330;11.498;2023-04-27T02:17:51;24217.34;;;-147.39;62.66
3524;BME280;1776;53.330;11.498;2023-04-27T02:20:16;24249.88;;;-147.39;62.63
3524;BME280;1776;53.330;11.498;2023-04-27T02:22:42;24276.31;;;-147.39;62.95
3524;BME280;1776;53.330;11.498;2023-04-27T02:25:09;24215.31;;;-147.39;62.33
3524;BME280;1776;53.330;11.498;2023-04-27T02:27:39;24207.16;;;-147.39;63.06
3524;BME280;1776;53.330;11.498;2023-04-27T02:30:05;24215.31;;;-147.39;63.77
3524;BME280;1776;53.330;11.498;2023-04-27T02:32:31;24213.28;;;-147.39;63.61
3524;BME280;1776;53.330;11.498;2023-04-27T02:34:57;24211.25;;;-147.39;63.25
3524;BME280;1776;53.330;11.498;2023-04-27T02:37:22;24205.13;;;-147.39;63.69
3524;BME280;1776;53.330;11.498;2023-04-27T02:39:47;24168.53;;;-147.39;63.55
3524;BME280;1776;53.330;11.498;2023-04-27T02:42:12;24172.59;;;-147.39;63.77
3524;BME280;1776;53.330;11.498;2023-04-27T02:44:38;24209.19;;;-147.39;63.28
3524;BME280;1776;53.330;11.498;2023-04-27T02:47:03;24209.19;;;-147.39;63.54
3524;BME280;1776;53.330;11.498;2023-04-27T02:49:28;24184.81;;;-147.39;63.67
3524;BME280;1776;53.330;11.498;2023-04-27T02:51:55;24160.41;;;-147.39;64.00
3524;BME280;1776;53.330;11.498;2023-04-27T02:54:20;24192.94;;;-147.39;63.64
3524;BME280;1776;53.330;11.498;2023-04-27T02:56:45;24188.88;;;-147.39;64.24
3524;BME280;1776;53.330;11.498;2023-04-27T02:59:11;24182.78;;;-147.39;64.13
3524;BME280;1776;53.330;11.498;2023-04-27T03:01:36;24170.56;;;-147.39;64.18
3524;BME280;1776;53.330;11.498;2023-04-27T03:04:01;24190.91;;;-147.39;64.63
3524;BME280;1776;53.330;11.498;2023-04-27T03:06:27;24168.53;;;-147.39;64.61
3524;BME280;1776;53.330;11.498;2023-04-27T03:08:52;24146.16;;;-147.39;65.15
3524;BME280;1776;53.330;11.498;2023-04-27T03:11:18;24142.09;;;-147.39;65.18
3524;BME280;1776;53.330;11.498;2023-04-27T03:13:43;24142.09;;;-147.39;65.07
3524;BME280;1776;53.330;11.498;2023-04-27T03:16:09;24164.47;;;-147.39;65.29
3524;BME280;1776;53.330;11.498;2023-04-27T03:18:35;24129.91;;;-147.39;64.73
3524;BME280;1776;53.330;11.498;2023-04-27T03:21:07;24140.06;;;-147.39;64.47
3524;BME280;1776;53.330;11.498;2023-04-27T03:23:33;24142.09;;;-147.39;64.24
3524;BME280;1776;53.330;11.498;2023-04-27T03:25:59;24207.16;;;-147.39;64.29
3524;BME280;1776;53.330;11.498;2023-04-27T03:28:24;24158.38;;;-147.39;64.33
3524;BME280;1776;53.330;11.498;2023-04-27T03:30:49;24178.72;;;-147.39;64.00
3524;BME280;1776;53.330;11.498;2023-04-27T03:33:15;24156.34;;;-147.39;63.69
3524;BME280;1776;53.330;11.498;2023-04-27T03:35:42;24182.78;;;-147.39;63.83
3524;BME280;1776;53.330;11.498;2023-04-27T03:38:07;24347.47;;;-147.39;63.60
3524;BME280;1776;53.330;11.498;2023-04-27T03:40:32;24154.31;;;-147.39;63.34
3524;BME280;1776;53.330;11.498;2023-04-27T03:42:58;24131.94;;;-147.39;63.25
3524;BME280;1776;53.330;11.498;2023-04-27T03:45:24;24162.44;;;-147.39;63.24
3524;BME280;1776;53.330;11.498;2023-04-27T03:47:49;24166.50;;;-147.39;63.05
3524;BME280;1776;53.330;11.498;2023-04-27T03:50:15;24164.47;;;-147.39;63.37
3524;BME280;1776;53.330;11.498;2023-04-27T03:52:40;24184.81;;;-147.39;62.99
3524;BME280;1776;53.330;11.498;2023-04-27T03:55:06;24150.25;;;-147.39;63.23
3524;BME280;1776;53.330;11.498;2023-04-27T03:57:32;24166.50;;;-147.39;63.56
3524;BME280;1776;53.330;11.498;2023-04-27T03:59:57;24162.44;;;-147.39;63.22
3524;BME280;1776;53.330;11.498;2023-04-27T04:02:22;24178.72;;;-147.39;63.73
3524;BME280;1776;53.330;11.498;2023-04-27T04:04:48;24160.41;;;-147.39;64.18
3524;BME280;1776;53.330;11.498;2023-04-27T04:07:13;24113.63;;;-147.39;64.51
3524;BME280;1776;53.330;11.498;2023-04-27T04:09:38;24168.53;;;-147.39;64.87
3524;BME280;1776;53.330;11.498;2023-04-27T04:12:04;24125.84;;;-147.39;64.20
3524;BME280;1776;53.330;11.498;2023-04-27T04:14:29;24103.47;;;-147.39;64.26
3524;BME280;1776;53.330;11.498;2023-04-27T04:16:54;24131.94;;;-147.39;64.26
3524;BME280;1776;53.330;11.498;2023-04-27T04:19:20;24119.75;;;-147.39;64.33
3524;BME280;1776;53.330;11.498;2023-04-27T04:21:45;24156.34;;;-147.39;64.58
3524;BME280;1776;53.330;11.498;2023-04-27T04:24:10;24107.53;;;-147.39;64.77
3524;BME280;1776;53.330;11.498;2023-04-27T04:26:36;24113.63;;;-147.39;65.32
3524;BME280;1776;53.330;11.498;2023-04-27T04:29:02;24083.13;;;-147.39;65.82
3524;BME280;1776;53.330;11.498;2023-04-27T04:31:27;24060.78;;;-147.39;67.01
3524;BME280;1776;53.330;11.498;2023-04-27T04:33:53;24064.84;;;-147.39;66.93
3524;BME280;1776;53.330;11.498;2023-04-27T04:36:18;24129.91;;;-147.39;66.97
3524;BME280;1776;53.330;11.498;2023-04-27T04:38:44;24036.38;;;-147.39;67.87
3524;BME280;1776;53.330;11.498;2023-04-27T04:41:09;24032.31;;;-147.39;68.35
3524;BME280;1776;53.330;11.498;2023-04-27T04:43:34;24081.09;;;-147.39;67.73
3524;BME280;1776;53.330;11.498;2023-04-27T04:46:00;24054.69;;;-147.39;67.46
3524;BME280;1776;53.330;11.498;2023-04-27T04:48:25;24087.22;;;-147.39;67.98
3524;BME280;1776;53.330;11.498;2023-04-27T04:50:50;24042.47;;;-147.39;67.19
3524;BME280;1776;53.330;11.498;2023-04-27T04:53:16;24042.47;;;-147.39;67.69
3524;BME280;1776;53.330;11.498;2023-04-27T04:55:41;24070.94;;;-147.39;67.51
3524;BME280;1776;53.330;11.498;2023-04-27T04:58:06;24081.09;;;-147.39;67.42
3524;BME280;1776;53.330;11.498;2023-04-27T05:00:31;24093.31;;;-147.39;67.77
3524;BME280;1776;53.330;11.498;2023-04-27T05:02:57;24050.59;;;-147.39;67.70
3524;BME280;1776;53.330;11.498;2023-04-27T05:05:22;24046.53;;;-147.39;67.96
3524;BME280;1776;53.330;11.498;2023-04-27T05:07:47;24040.44;;;-147.39;68.26
3524;BME280;1776;53.330;11.498;2023-04-27T05:10:13;24038.41;;;-147.39;68.21
3524;BME280;1776;53.330;11.498;2023-04-27T05:12:38;24046.53;;;-147.39;68.01
3524;BME280;1776;53.330;11.498;2023-04-27T05:15:04;24060.78;;;-147.39;68.35
3524;BME280;1776;53.330;11.498;2023-04-27T05:17:29;24042.47;;;-147.39;68.30
3524;BME280;1776;53.330;11.498;2023-04-27T05:19:55;24032.31;;;-147.39;68.31
3524;BME280;1776;53.330;11.498;2023-04-27T05:22:20;24005.88;;;-147.39;68.12
3524;BME280;1776;53.330;11.498;2023-04-27T05:24:45;24087.22;;;-147.39;67.67
3524;BME280;1776;53.330;11.498;2023-04-27T05:27:12;24040.44;;;-147.39;68.48
3524;BME280;1776;53.330;11.498;2023-04-27T05:29:38;24018.06;;;-147.39;68.11
3524;BME280;1776;53.330;11.498;2023-04-27T05:32:04;24046.53;;;-147.39;68.09
3524;BME280;1776;53.330;11.498;2023-04-27T05:34:30;24038.41;;;-147.39;68.03
3524;BME280;1776;53.330;11.498;2023-04-27T05:36:55;24009.94;;;-147.39;68.65
3524;BME280;1776;53.330;11.498;2023-04-27T05:39:20;24036.38;;;-147.39;68.45
3524;BME280;1776;53.330;11.498;2023-04-27T05:41:46;24062.81;;;-147.39;69.03
3524;BME280;1776;53.330;11.498;2023-04-27T05:44:11;24036.38;;;-147.39;68.80
3524;BME280;1776;53.330;11.498;2023-04-27T05:46:36;24005.88;;;-147.39;68.84
3524;BME280;1776;53.330;11.498;2023-04-27T05:49:01;24028.25;;;-147.39;69.55
3524;BME280;1776;53.330;11.498;2023-04-27T05:51:27;24038.41;;;-147.39;69.28
3524;BME280;1776;53.330;11.498;2023-04-27T05:53:52;23983.50;;;-147.39;70.41
3524;BME280;1776;53.330;11.498;2023-04-27T05:56:20;23995.72;;;-147.39;70.27
3524;BME280;1776;53.330;11.498;2023-04-27T05:58:46;24011.97;;;-147.39;70.40
3524;BME280;1776;53.330;11.498;2023-04-27T06:01:11;24003.84;;;-147.39;69.70
3524;BME280;1776;53.330;11.498;2023-04-27T06:03:36;24022.16;;;-147.39;69.86
3524;BME280;1776;53.330;11.498;2023-04-27T06:06:02;24034.34;;;-147.39;68.88
3524;BME280;1776;53.330;11.498;2023-04-27T06:08:27;24079.06;;;-147.39;68.22
3524;BME280;1776;53.330;11.498;2023-04-27T06:10:53;24217.34;;;-147.39;69.64
3524;BME280;1776;53.330;11.498;2023-04-27T06:13:19;24040.44;;;-147.39;69.49
3524;BME280;1776;53.330;11.498;2023-04-27T06:15:45;24001.81;;;-147.39;69.46
3524;BME280;1776;53.330;11.498;2023-04-27T06:18:10;24016.03;;;-147.39;68.87
3524;BME280;1776;53.330;11.498;2023-04-27T06:20:36;24081.09;;;-147.39;68.68
3524;BME280;1776;53.330;11.498;2023-04-27T06:23:01;24099.41;;;-147.39;67.73
3524;BME280;1776;53.330;11.498;2023-04-27T06:25:26;24089.25;;;-147.39;67.85
3524;BME280;1776;53.330;11.498;2023-04-27T06:27:53;24054.69;;;-147.39;67.56
3524;BME280;1776;53.330;11.498;2023-04-27T06:30:19;24103.47;;;-147.39;67.61
3524;BME280;1776;53.330;11.498;2023-04-27T06:32:44;24105.50;;;-147.39;67.42
3524;BME280;1776;53.330;11.498;2023-04-27T06:35:10;24103.47;;;-147.39;67.32
3524;BME280;1776;53.330;11.498;2023-04-27T06:37:35;24158.38;;;-147.39;66.91
3524;BME280;1776;53.330;11.498;2023-04-27T06:40:00;24070.94;;;-147.39;67.52
3524;BME280;1776;53.330;11.498;2023-04-27T06:42:26;24060.78;;;-147.39;67.43
3524;BME280;1776;53.330;11.498;2023-04-27T06:44:54;24101.44;;;-147.39;66.92
3524;BME280;1776;53.330;11.498;2023-04-27T06:47:20;24131.94;;;-147.39;66.36
3524;BME280;1776;53.330;11.498;2023-04-27T06:49:46;24144.13;;;-147.39;66.06
3524;BME280;1776;53.330;11.498;2023-04-27T06:52:11;24174.63;;;-147.39;65.51
3524;BME280;1776;53.330;11.498;2023-04-27T06:54:37;24117.72;;;-147.39;65.42
3524;BME280;1776;53.330;11.498;2023-04-27T06:57:02;24133.97;;;-147.39;65.14
3524;BME280;1776;53.330;11.498;2023-04-27T06:59:27;24160.41;;;-147.39;64.71
3524;BME280;1776;53.330;11.498;2023-04-27T07:01:53;24174.63;;;-147.39;64.50
3524;BME280;1776;53.330;11.498;2023-04-27T07:04:18;24166.50;;;-147.39;64.22
3524;BME280;1776;53.330;11.498;2023-04-27T07:06:43;24150.25;;;-147.39;64.08
3524;BME280;1776;53.330;11.498;2023-04-27T07:09:08;24219.38;;;-147.39;66.40
3524;BME280;1776;53.330;11.498;2023-04-27T07:11:34;24180.75;;;-147.39;64.51
3524;BME280;1776;53.330;11.498;2023-04-27T07:13:59;24205.13;;;-147.39;63.72
3524;BME280;1776;53.330;11.498;2023-04-27T07:16:24;24266.13;;;-147.39;61.72
3524;BME280;1776;53.330;11.498;2023-04-27T07:18:50;24274.28;;;-147.39;60.65
3524;BME280;1776;53.330;11.498;2023-04-27T07:21:15;24365.78;;;-147.39;60.45
3524;BME280;1776;53.330;11.498;2023-04-27T07:23:40;24319.00;;;-147.39;60.33
3524;BME280;1776;53.330;11.498;2023-04-27T07:26:07;24310.88;;;-147.39;59.73
3524;BME280;1776;53.330;11.498;2023-04-27T07:28:32;24290.53;;;-147.39;59.85
3524;BME280;1776;53.330;11.498;2023-04-27T07:30:59;24337.31;;;-147.39;59.53
3524;BME280;1776;53.330;11.498;2023-04-27T07:33:25;24355.59;;;-147.39;58.91
3524;BME280;1776;53.330;11.498;2023-04-27T07:35:51;24331.22;;;-147.39;59.29
3524;BME280;1776;53.330;11.498;2023-04-27T07:38:18;24400.34;;;-147.39;57.70
3524;BME280;1776;53.330;11.498;2023-04-27T07:40:43;24436.94;;;-147.39;57.68
3524;BME280;1776;53.330;11.498;2023-04-27T07:43:09;23904.22;;;-147.39;62.45
3524;BME280;1776;53.330;11.498;2023-04-27T07:45:34;24337.31;;;-147.39;63.16
3524;BME280;1776;53.330;11.498;2023-04-27T07:48:03;24430.84;;;-147.39;60.01
3524;BME280;1776;53.330;11.498;2023-04-27T07:50:29;24447.13;;;-147.39;60.12
3524;BME280;1776;53.330;11.498;2023-04-27T07:52:55;24530.47;;;-147.39;53.94
3524;BME280;1776;53.330;11.498;2023-04-27T07:55:21;24520.31;;;-147.39;54.32
3524;BME280;1776;53.330;11.498;2023-04-27T07:57:48;24567.09;;;-147.39;53.25
3524;BME280;1776;53.330;11.498;2023-04-27T08:00:13;24532.50;;;-147.39;52.63
3524;BME280;1776;53.330;11.498;2023-04-27T08:02:40;24567.09;;;-147.39;52.70
3524;BME280;1776;53.330;11.498;2023-04-27T08:05:05;24607.75;;;-147.39;51.79
3524;BME280;1776;53.330;11.498;2023-04-27T08:07:32;24624.03;;;-147.39;51.44
3524;BME280;1776;53.330;11.498;2023-04-27T08:09:57;24605.72;;;-147.39;50.63
3524;BME280;1776;53.330;11.498;2023-04-27T08:12:23;24613.84;;;-147.39;50.92
3524;BME280;1776;53.330;11.498;2023-04-27T08:14:48;24611.81;;;-147.39;51.11
3524;BME280;1776;53.330;11.498;2023-04-27T08:17:13;24638.25;;;-147.39;51.41
3524;BME280;1776;53.330;11.498;2023-04-27T08:19:40;24656.56;;;-147.39;50.42
3524;BME280;1776;53.330;11.498;2023-04-27T08:22:05;24701.31;;;-147.39;50.29
3524;BME280;1776;53.330;11.498;2023-04-27T08:24:30;24727.75;;;-147.39;49.39
3524;BME280;1776;53.330;11.498;2023-04-27T08:26:56;24469.47;;;-147.39;48.99
3524;BME280;1776;53.330;11.498;2023-04-27T08:29:21;24666.72;;;-147.39;50.16
3524;BME280;1776;53.330;11.498;2023-04-27T08:31:47;24672.84;;;-147.39;50.21
3524;BME280;1776;53.330;11.498;2023-04-27T08:34:12;24731.81;;;-147.39;49.41
3524;BME280;1776;53.330;11.498;2023-04-27T08:36:37;24756.22;;;-147.39;49.37
3524;BME280;1776;53.330;11.498;2023-04-27T08:39:03;24678.94;;;-147.39;49.12
3524;BME280;1776;53.330;11.498;2023-04-27T08:41:31;24689.09;;;-147.39;49.35
3524;BME280;1776;53.330;11.498;2023-04-27T08:43:57;24709.44;;;-147.39;49.43
3524;BME280;1776;53.330;11.498;2023-04-27T08:46:23;24741.97;;;-147.39;49.09
3524;BME280;1776;53.330;11.498;2023-04-27T08:48:52;24737.91;;;-147.39;48.55
3524;BME280;1776;53.330;11.498;2023-04-27T08:51:18;24760.28;;;-147.39;47.52
3524;BME280;1776;53.330;11.498;2023-04-27T08:53:49;24798.91;;;-147.39;47.57
3524;BME280;1776;53.330;11.498;2023-04-27T08:56:15;24823.31;;;-147.39;46.75
3524;BME280;1776;53.330;11.498;2023-04-27T08:58:40;24790.78;;;-147.39;47.18
3524;BME280;1776;53.330;11.498;2023-04-27T09:01:06;24849.75;;;-147.39;46.92
3524;BME280;1776;53.330;11.498;2023-04-27T09:03:32;24786.72;;;-147.39;46.88
3524;BME280;1776;53.330;11.498;2023-04-27T09:06:05;24829.41;;;-147.39;46.08
3524;BME280;1776;53.330;11.498;2023-04-27T09:08:43;24861.97;;;-147.39;45.07
3524;BME280;1776;53.330;11.498;2023-04-27T09:11:09;24878.22;;;-147.39;43.62
3524;BME280;1776;53.330;11.498;2023-04-27T09:13:35;24900.59;;;-147.39;43.75
3524;BME280;1776;53.330;11.498;2023-04-27T09:16:01;24963.63;;;-147.39;43.47
3524;BME280;1776;53.330;11.498;2023-04-27T09:18:26;24990.09;;;-147.39;43.62
3524;BME280;1776;53.330;11.498;2023-04-27T09:20:52;24963.63;;;-147.39;43.96
3524;BME280;1776;53.330;11.498;2023-04-27T09:23:30;24927.03;;;-147.39;44.22
3524;BME280;1776;53.330;11.498;2023-04-27T09:25:58;24898.56;;;-147.39;43.97
3524;BME280;1776;53.330;11.498;2023-04-27T09:28:25;24916.88;;;-147.39;42.43
3524;BME280;1776;53.330;11.498;2023-04-27T09:30:56;24933.13;;;-147.39;42.57
3524;BME280;1776;53.330;11.498;2023-04-27T09:33:27;24963.63;;;-147.39;42.98
3524;BME280;1776;53.330;11.498;2023-04-27T09:35:53;25022.63;;;-147.39;42.88
3524;BME280;1776;53.330;11.498;2023-04-27T09:38:21;24953.47;;;-147.39;42.91
3524;BME280;1776;53.330;11.498;2023-04-27T09:40:48;24967.72;;;-147.39;43.17
3524;BME280;1776;53.330;11.498;2023-04-27T09:43:13;24996.19;;;-147.39;42.60
3524;BME280;1776;53.330;11.498;2023-04-27T09:45:39;25022.63;;;-147.39;42.88
3524;BME280;1776;53.330;11.498;2023-04-27T09:48:05;24983.97;;;-147.39;42.41
3524;BME280;1776;53.330;11.498;2023-04-27T09:50:35;24939.25;;;-147.39;43.38
3524;BME280;1776;53.330;11.498;2023-04-27T09:53:02;24973.81;;;-147.39;43.18
3524;BME280;1776;53.330;11.498;2023-04-27T09:55:33;24992.13;;;-147.39;43.68
3524;BME280;1776;53.330;11.498;2023-04-27T10:08:58;25114.13;;;-147.39;42.16
3524;BME280;1776;53.330;11.498;2023-04-27T10:11:39;25156.84;;;-147.39;40.63
3524;BME280;1776;53.330;11.498;2023-04-27T10:14:08;25106.00;;;-147.39;40.75
3524;BME280;1776;53.330;11.498;2023-04-27T10:16:54;25055.16;;;-147.39;41.77
3524;BME280;1776;53.330;11.498;2023-04-27T10:19:21;24981.94;;;-147.39;43.64
3524;BME280;1776;53.330;11.498;2023-04-27T10:21:59;24977.88;;;-147.39;44.74
3524;BME280;1776;53.330;11.498;2023-04-27T10:24:49;24861.97;;;-147.39;45.60
3524;BME280;1776;53.330;11.498;2023-04-27T10:27:16;24955.50;;;-147.39;45.83
3524;BME280;1776;53.330;11.498;2023-04-27T10:29:45;25040.94;;;-147.39;44.65
3524;BME280;1776;53.330;11.498;2023-04-27T10:32:12;25120.25;;;-147.39;44.37
3524;BME280;1776;53.330;11.498;2023-04-27T10:34:38;25232.09;;;-147.39;42.60
3524;BME280;1776;53.330;11.498;2023-04-27T10:37:06;25287.00;;;-147.39;41.32
3524;BME280;1776;53.330;11.498;2023-04-27T10:39:38;25315.50;;;-147.39;39.02
3524;BME280;1776;53.330;11.498;2023-04-27T10:42:04;25364.31;;;-147.39;39.57
3524;BME280;1776;53.330;11.498;2023-04-27T10:44:31;25311.44;;;-147.39;38.98
3524;BME280;1776;53.330;11.498;2023-04-27T10:46:59;25331.75;;;-147.39;38.50
3524;BME280;1776;53.330;11.498;2023-04-27T10:49:29;25289.06;;;-147.39;38.68
3524;BME280;1776;53.330;11.498;2023-04-27T10:51:56;25309.38;;;-147.39;37.54
3524;BME280;1776;53.330;11.498;2023-04-27T10:54:26;25321.59;;;-147.39;37.31
3524;BME280;1776;53.330;11.498;2023-04-27T10:56:52;25366.34;;;-147.39;38.01
3524;BME280;1776;53.330;11.498;2023-04-27T10:59:18;25484.31;;;-147.39;36.58
3524;BME280;1776;53.330;11.498;2023-04-27T11:01:47;25425.31;;;-147.39;36.61
3524;BME280;1776;53.330;11.498;2023-04-27T11:04:12;25409.06;;;-147.39;37.29
3524;BME280;1776;53.330;11.498;2023-04-27T11:06:42;25372.44;;;-147.39;36.41
3524;BME280;1776;53.330;11.498;2023-04-27T11:09:07;25335.84;;;-147.39;37.61
3524;BME280;1776;53.330;11.498;2023-04-27T11:11:34;24981.94;;;-147.39;36.69
3524;BME280;1776;53.330;11.498;2023-04-27T11:14:00;25260.56;;;-147.39;38.16
3524;BME280;1776;53.330;11.498;2023-04-27T11:16:27;25327.69;;;-147.39;38.92
3524;BME280;1776;53.330;11.498;2023-04-27T11:18:53;25325.66;;;-147.39;39.08
3524;BME280;1776;53.330;11.498;2023-04-27T11:21:18;25264.66;;;-147.39;39.96
3524;BME280;1776;53.330;11.498;2023-04-27T11:23:47;25321.59;;;-147.39;39.84
3524;BME280;1776;53.330;11.498;2023-04-27T11:26:17;25388.72;;;-147.39;39.47
3524;BME280;1776;53.330;11.498;2023-04-27T11:28:45;25384.66;;;-147.39;38.27
3524;BME280;1776;53.330;11.498;2023-04-27T11:31:21;25468.03;;;-147.39;38.15
3524;BME280;1776;53.330;11.498;2023-04-27T11:33:47;25437.53;;;-147.39;38.22
3524;BME280;1776;53.330;11.498;2023-04-27T11:36:20;25433.47;;;-147.39;36.58
3524;BME280;1776;53.330;11.498;2023-04-27T11:38:46;25413.13;;;-147.39;36.87
3524;BME280;1776;53.330;11.498;2023-04-27T11:41:12;25439.56;;;-147.39;36.06
3524;BME280;1776;53.330;11.498;2023-04-27T11:43:41;25463.97;;;-147.39;36.79
3524;BME280;1776;53.330;11.498;2023-04-27T11:46:07;25541.25;;;-147.39;36.19
3524;BME280;1776;53.330;11.498;2023-04-27T11:48:36;25577.88;;;-147.39;35.99
3524;BME280;1776;53.330;11.498;2023-04-27T11:51:02;25504.66;;;-147.39;36.49
3524;BME280;1776;53.330;11.498;2023-04-27T11:53:31;25545.31;;;-147.39;36.34
3524;BME280;1776;53.330;11.498;2023-04-27T11:56:04;25575.84;;;-147.39;36.39
3524;BME280;1776;53.330;11.498;2023-04-27T11:58:37;25563.63;;;-147.39;36.36
3524;BME280;1776;53.330;11.498;2023-04-27T12:01:03;25531.09;;;-147.39;37.22
3524;BME280;1776;53.330;11.498;2023-04-27T12:03:29;25380.56;;;-147.39;37.45
3524;BME280;1776;53.330;11.498;2023-04-27T12:05:55;25386.69;;;-147.39;37.53
3524;BME280;1776;53.330;11.498;2023-04-27T12:08:21;25407.03;;;-147.39;37.95
3524;BME280;1776;53.330;11.498;2023-04-27T12:10:46;25374.47;;;-147.39;37.75
3524;BME280;1776;53.330;11.498;2023-04-27T12:13:12;25360.25;;;-147.39;37.77
3524;BME280;1776;53.330;11.498;2023-04-27T12:15:38;25350.06;;;-147.39;38.77
3524;BME280;1776;53.330;11.498;2023-04-27T12:18:04;25409.06;;;-147.39;38.86
3524;BME280;1776;53.330;11.498;2023-04-27T12:20:30;25337.88;;;-147.39;38.90
3524;BME280;1776;53.330;11.498;2023-04-27T12:22:56;25348.03;;;-147.39;39.36
3524;BME280;1776;53.330;11.498;2023-04-27T12:25:21;25339.91;;;-147.39;39.31
3524;BME280;1776;53.330;11.498;2023-04-27T12:27:46;25305.31;;;-147.39;39.98
3524;BME280;1776;53.330;11.498;2023-04-27T12:30:13;25289.06;;;-147.39;39.71
3524;BME280;1776;53.330;11.498;2023-04-27T12:32:39;25368.38;;;-147.39;40.44
3524;BME280;1776;53.330;11.498;2023-04-27T12:35:05;25380.56;;;-147.39;38.37
3524;BME280;1776;53.330;11.498;2023-04-27T12:37:31;25492.44;;;-147.39;38.23
3524;BME280;1776;53.330;11.498;2023-04-27T12:39:56;25535.16;;;-147.39;37.31
3524;BME280;1776;53.330;11.498;2023-04-27T12:42:22;25614.50;;;-147.39;36.99
3524;BME280;1776;53.330;11.498;2023-04-27T12:44:51;25661.28;;;-147.39;36.69
3524;BME280;1776;53.330;11.498;2023-04-27T12:47:17;25728.41;;;-147.39;36.25
3524;BME280;1776;53.330;11.498;2023-04-27T12:49:43;25748.75;;;-147.39;35.92
3524;BME280;1776;53.330;11.498;2023-04-27T12:52:09;25748.75;;;-147.39;35.32
3524;BME280;1776;53.330;11.498;2023-04-27T12:54:34;25765.00;;;-147.39;35.28
3524;BME280;1776;53.330;11.498;2023-04-27T12:57:00;25714.16;;;-147.39;36.07